Time;durP1;ratioP1;P1;durP2;ratioP2;P2;SDS_P1;SDS_P2;PMS_P1;PMS_P2;Temp;Humidity;BMP_temperature;BMP_pressure;BME280_temperature;BME280_humidity;BME280_pressure;Samples;Min_cycle;Max_cycle;Signal;HPM_P1;HPM_P2
2022/04/25 00:00:27;;;;;;;9.50;7.37;;;;;;;22.94;39.74;94359.69;6178605;28;103933;-53
2022/04/25 00:03:29;;;;;;;11.10;7.27;;;;;;;22.95;39.64;94356.69;6175229;28;103439;-53
2022/04/25 00:06:32;;;;;;;10.20;6.83;;;;;;;22.91;39.28;94355.03;6171625;28;104475;-54
2022/04/25 00:09:33;;;;;;;15.10;6.57;;;;;;;22.91;39.48;94358.47;6159991;28;104343;-53
2022/04/25 00:12:35;;;;;;;13.07;7.50;;;;;;;22.93;39.59;94364.25;6167798;28;103958;-54
2022/04/25 00:15:37;;;;;;;8.90;6.53;;;;;;;22.93;39.13;94358.94;6173257;28;103464;-53
2022/04/25 00:18:40;;;;;;;9.63;6.43;;;;;;;22.93;39.48;94364.25;6178559;28;103010;-53
2022/04/25 00:21:42;;;;;;;13.73;6.47;;;;;;;22.92;39.58;94360.03;6165132;28;102824;-53
2022/04/25 00:24:47;;;;;;;13.27;6.07;;;;;;;22.93;39.51;94361.59;6153062;28;103248;-53
2022/04/25 00:27:49;;;;;;;11.93;6.13;;;;;;;22.92;39.18;94369.94;6163185;28;103366;-54
2022/04/25 00:30:51;;;;;;;12.70;5.90;;;;;;;22.88;39.13;94369.03;6162233;28;103227;-54
2022/04/25 00:33:53;;;;;;;12.63;5.77;;;;;;;22.86;39.01;94373.91;6163322;28;103167;-53
2022/04/25 00:36:54;;;;;;;9.27;5.77;;;;;;;22.85;39.17;94383.00;6143330;28;103285;-54
2022/04/25 00:39:56;;;;;;;11.13;5.97;;;;;;;22.87;39.23;94375.47;6138479;28;103092;-53
2022/04/25 00:42:58;;;;;;;9.13;5.47;;;;;;;22.82;39.40;94379.09;6167080;28;104879;-53
2022/04/25 00:46:00;;;;;;;14.50;5.80;;;;;;;22.83;39.54;94380.66;6188524;28;103791;-53
2022/04/25 00:49:02;;;;;;;9.73;5.60;;;;;;;22.82;39.39;94381.75;6162387;28;104567;-53
2022/04/25 00:52:05;;;;;;;9.80;5.27;;;;;;;22.84;39.80;94382.22;6162805;28;103839;-52
2022/04/25 00:55:10;;;;;;;10.23;6.10;;;;;;;22.83;39.45;94377.22;6177456;28;103352;-53
2022/04/25 00:58:13;;;;;;;11.83;6.10;;;;;;;22.83;39.46;94379.88;6156483;28;103118;-53
2022/04/25 01:01:15;;;;;;;8.90;5.50;;;;;;;22.82;39.17;94373.75;6172674;28;104320;-53
2022/04/25 01:04:19;;;;;;;8.43;5.40;;;;;;;22.79;39.51;94370.97;6163818;28;103034;-55
2022/04/25 01:07:24;;;;;;;12.83;5.90;;;;;;;22.80;39.42;94375.97;6162719;28;104026;-53
2022/04/25 01:10:26;;;;;;;12.77;5.20;;;;;;;22.82;39.54;94364.97;6152370;28;103231;-53
2022/04/25 01:13:28;;;;;;;9.70;4.90;;;;;;;22.80;39.23;94373.31;6185244;28;103094;-53
2022/04/25 01:16:30;;;;;;;14.40;6.13;;;;;;;22.81;39.44;94358.09;6186439;28;102995;-53
2022/04/25 01:19:32;;;;;;;10.57;5.70;;;;;;;22.79;39.61;94354.97;6187276;28;104473;-54
2022/04/25 01:27:15;;;;;;;10.23;5.17;;;;;;;22.81;39.63;94348.19;6159008;28;104289;-53
2022/04/25 01:29:45;;;;;;;11.40;5.20;;;;;;;22.80;39.74;94329.84;6172351;28;104331;-53
2022/04/25 01:32:47;;;;;;;10.03;5.53;;;;;;;22.78;39.46;94324.06;6154047;28;104255;-55
2022/04/25 01:35:49;;;;;;;15.90;5.60;;;;;;;22.78;39.41;94319.50;6176374;28;103635;-53
2022/04/25 01:38:52;;;;;;;9.83;5.87;;;;;;;22.79;39.62;94315.72;6163023;28;103310;-53
2022/04/25 01:41:54;;;;;;;8.70;5.37;;;;;;;22.78;39.35;94313.41;6161255;28;104148;-54
2022/04/25 01:44:56;;;;;;;8.00;5.00;;;;;;;22.78;39.57;94313.41;6165900;28;102743;-53
2022/04/25 01:47:58;;;;;;;10.40;5.77;;;;;;;22.76;39.17;94297.72;6162296;28;103411;-53
2022/04/25 01:51:00;;;;;;;11.30;5.00;;;;;;;22.77;39.38;94301.16;6168714;28;103163;-54
2022/04/25 01:54:02;;;;;;;11.37;5.60;;;;;;;22.73;39.48;94287.72;6161283;28;103369;-53
2022/04/25 01:57:06;;;;;;;8.47;5.50;;;;;;;22.73;39.49;94300.28;6162801;28;102907;-54
2022/04/25 02:00:08;;;;;;;9.50;4.80;;;;;;;22.74;39.19;94299.16;6184174;28;104125;-55
2022/04/25 02:03:10;;;;;;;11.53;4.77;;;;;;;22.70;39.37;94296.38;6149049;28;104595;-55
2022/04/25 02:06:12;;;;;;;8.27;5.33;;;;;;;22.73;39.12;94292.28;6174936;28;103329;-55
2022/04/25 02:09:14;;;;;;;13.67;6.27;;;;;;;22.73;39.62;94294.94;6155156;28;103201;-55
2022/04/25 02:12:16;;;;;;;11.13;6.20;;;;;;;22.72;39.15;94293.38;6162065;28;104662;-55
2022/04/25 02:15:17;;;;;;;16.00;6.70;;;;;;;22.70;39.51;94285.69;6160408;28;103071;-55
2022/04/25 02:18:19;;;;;;;12.47;6.03;;;;;;;22.68;39.34;94286.03;6152393;28;103064;-55
2022/04/25 02:21:21;;;;;;;10.20;5.90;;;;;;;22.72;39.44;94293.38;6161511;28;103763;-55
2022/04/25 02:24:23;;;;;;;12.97;5.93;;;;;;;22.68;39.70;94291.38;6174132;28;103137;-55
2022/04/25 02:27:25;;;;;;;13.80;5.57;;;;;;;22.71;39.37;94292.59;6173117;28;103146;-55
2022/04/25 02:30:27;;;;;;;12.23;5.53;;;;;;;22.68;39.20;94283.38;6150726;28;102928;-55
2022/04/25 02:33:28;;;;;;;9.13;4.90;;;;;;;22.68;39.42;94294.03;6159169;28;103273;-55
2022/04/25 02:36:31;;;;;;;13.97;6.27;;;;;;;22.66;39.35;94288.22;6161030;28;103323;-55
2022/04/25 02:39:32;;;;;;;12.00;5.90;;;;;;;22.62;38.79;94289.22;6178161;28;104070;-55
2022/04/25 02:42:34;;;;;;;15.70;5.87;;;;;;;22.65;38.71;94289.34;6174173;28;103004;-55
2022/04/25 02:45:36;;;;;;;8.77;5.20;;;;;;;22.65;39.23;94292.00;6169353;28;103193;-54
2022/04/25 02:48:39;;;;;;;12.90;5.57;;;;;;;22.68;39.02;94302.03;6159732;28;106374;-55
2022/04/25 02:51:41;;;;;;;12.97;5.40;;;;;;;22.68;38.78;94306.56;6168681;28;105153;-55
2022/04/25 02:54:42;;;;;;;11.00;4.80;;;;;;;22.66;38.87;94296.22;6159322;28;104256;-54
2022/04/25 02:57:44;;;;;;;13.73;5.70;;;;;;;22.65;38.75;94284.00;6164752;28;104318;-55
2022/04/25 03:00:47;;;;;;;12.57;5.70;;;;;;;22.64;38.94;94269.09;6161181;28;103501;-55
2022/04/25 03:03:49;;;;;;;13.03;5.50;;;;;;;22.62;38.84;94258.00;6150352;28;104423;-55
2022/04/25 03:06:51;;;;;;;7.67;5.47;;;;;;;22.65;39.06;94254.66;6178979;28;104004;-55
2022/04/25 03:09:52;;;;;;;9.47;5.20;;;;;;;22.64;38.54;94258.44;6171351;28;104411;-55
2022/04/25 03:12:54;;;;;;;14.20;5.90;;;;;;;22.65;38.66;94264.56;6160747;28;103268;-55
2022/04/25 03:15:56;;;;;;;13.93;5.13;;;;;;;22.60;38.75;94260.22;6151157;28;107334;-54
2022/04/25 03:18:58;;;;;;;9.60;5.30;;;;;;;22.61;38.49;94267.09;6181954;28;103176;-55
2022/04/25 03:22:01;;;;;;;10.17;5.37;;;;;;;22.62;38.41;94267.88;6185141;28;103045;-55
2022/04/25 03:25:03;;;;;;;13.33;5.00;;;;;;;22.59;38.36;94263.97;6172136;28;103111;-55
2022/04/25 03:28:04;;;;;;;11.47;5.80;;;;;;;22.61;38.66;94256.44;6158294;28;103117;-55
2022/04/25 03:31:07;;;;;;;7.83;4.93;;;;;;;22.55;38.50;94263.06;6163897;28;102869;-60
2022/04/25 03:34:09;;;;;;;10.50;4.87;;;;;;;22.56;38.64;94261.16;6159696;28;103752;-55
2022/04/25 03:37:11;;;;;;;8.23;4.67;;;;;;;22.58;38.39;94277.66;6154946;28;103332;-56
2022/04/25 03:40:13;;;;;;;12.47;4.90;;;;;;;22.58;38.62;94272.31;6156137;28;103362;-55
2022/04/25 03:43:17;;;;;;;10.83;4.97;;;;;;;22.59;38.50;94276.53;6175533;28;103492;-55
2022/04/25 03:46:19;;;;;;;7.60;5.13;;;;;;;22.56;38.37;94285.94;6184424;28;103247;-55
2022/04/25 03:49:21;;;;;;;10.00;5.20;;;;;;;22.56;38.23;94291.28;6158407;28;103869;-55
2022/04/25 03:52:23;;;;;;;8.20;4.43;;;;;;;22.56;38.47;94301.16;6166228;28;104238;-55
2022/04/25 03:58:45;;;;;;;10.63;4.70;;;;;;;22.56;38.25;94301.94;6163957;28;102921;-55
2022/04/25 04:01:47;;;;;;;10.17;5.10;;;;;;;22.54;38.16;94298.81;6153394;28;104012;-55
2022/04/25 04:04:49;;;;;;;8.20;4.80;;;;;;;22.59;38.09;94305.88;6179323;28;103014;-55
2022/04/25 04:07:51;;;;;;;10.10;5.30;;;;;;;22.52;38.44;94306.38;6176398;28;104155;-53
2022/04/25 04:10:53;;;;;;;8.70;4.80;;;;;;;22.56;38.03;94315.28;6166657;28;103244;-54
2022/04/25 04:13:55;;;;;;;8.97;5.00;;;;;;;22.56;38.34;94317.94;6153043;28;104357;-54
2022/04/25 04:16:58;;;;;;;10.33;4.77;;;;;;;22.57;38.46;94318.75;6162544;28;103298;-55
2022/04/25 04:20:00;;;;;;;10.03;4.83;;;;;;;22.55;38.63;94316.38;6173562;28;103092;-54
2022/04/25 04:23:03;;;;;;;8.07;4.60;;;;;;;22.54;38.54;94322.81;6182266;28;103128;-54
2022/04/25 04:26:05;;;;;;;9.37;5.00;;;;;;;22.59;38.34;94321.88;6175599;28;103207;-54
2022/04/25 04:29:06;;;;;;;6.20;5.10;;;;;;;22.56;38.19;94325.94;6162894;28;103289;-54
2022/04/25 04:32:08;;;;;;;8.43;4.83;;;;;;;22.56;38.35;94317.16;6161546;28;104939;-54
2022/04/25 04:35:13;;;;;;;10.00;5.37;;;;;;;22.54;39.15;94320.16;6167749;28;104236;-54
2022/04/25 04:38:14;;;;;;;8.97;4.90;;;;;;;22.56;38.89;94333.94;6184311;28;104347;-53
2022/04/25 04:41:16;;;;;;;10.97;5.03;;;;;;;22.54;38.96;94330.81;6165584;28;103361;-51
2022/04/25 04:44:18;;;;;;;10.97;4.60;;;;;;;22.53;38.95;94323.94;6163333;28;103519;-51
2022/04/25 04:47:19;;;;;;;12.93;7.13;;;;;;;22.42;40.82;94323.53;6157392;28;103308;-52
2022/04/25 04:50:22;;;;;;;12.70;6.03;;;;;;;22.37;39.95;94326.41;6162587;28;104086;-52
2022/04/25 04:53:24;;;;;;;13.60;6.23;;;;;;;22.42;40.14;94317.41;6163029;28;102969;-51
2022/04/25 04:56:26;;;;;;;14.77;6.90;;;;;;;22.47;39.81;94335.88;6162313;28;103345;-51
2022/04/25 04:59:28;;;;;;;11.80;6.33;;;;;;;22.50;39.45;94337.88;6154427;28;103469;-54
2022/04/25 05:02:31;;;;;;;15.13;6.67;;;;;;;22.53;39.33;94339.16;6166942;28;103513;-53
2022/04/25 05:05:33;;;;;;;13.77;6.40;;;;;;;22.51;40.24;94336.78;6180823;28;103093;-52
2022/04/25 05:08:35;;;;;;;10.13;5.87;;;;;;;22.54;39.39;94335.38;6177900;28;104314;-53
2022/04/25 05:11:37;;;;;;;13.63;6.73;;;;;;;22.51;40.08;94341.34;6173842;28;103189;-53
2022/04/25 05:14:40;;;;;;;11.53;6.50;;;;;;;22.53;39.53;94352.47;6177091;28;104361;-52
2022/04/25 05:17:48;;;;;;;16.67;6.63;;;;;;;22.53;40.55;94350.59;6154621;28;103288;-51
2022/04/25 05:20:51;;;;;;;15.30;6.63;;;;;;;22.55;39.87;94371.59;6153321;28;104258;-51
2022/04/25 05:23:52;;;;;;;14.80;6.40;;;;;;;22.55;40.29;94375.03;6162416;28;104268;-53
2022/04/25 05:26:54;;;;;;;11.47;7.07;;;;;;;22.51;40.47;94381.34;6179026;28;103134;-53
2022/04/25 05:29:56;;;;;;;13.23;7.30;;;;;;;22.48;40.69;94382.75;6179329;28;103300;-52
2022/04/25 05:33:02;;;;;;;11.83;6.80;;;;;;;22.51;40.34;94376.00;6173516;28;102793;-51
2022/04/25 05:36:04;;;;;;;13.37;6.60;;;;;;;22.55;40.14;94395.59;6161094;28;104103;-51
2022/04/25 05:39:06;;;;;;;13.70;6.60;;;;;;;22.55;40.09;94374.28;6161539;28;103386;-52
2022/04/25 05:42:08;;;;;;;15.73;6.40;;;;;;;22.63;39.38;94379.56;6177216;28;103521;-51
2022/04/25 05:45:10;;;;;;;14.13;6.40;;;;;;;22.67;39.85;94374.34;6156315;28;103294;-54
2022/04/25 05:54:53;;;;;;;10.57;5.70;;;;;;;22.85;39.40;94381.13;6167391;28;103080;-51
2022/04/25 05:57:57;;;;;;;11.13;5.50;;;;;;;22.94;39.68;94362.38;6185880;28;105190;-55
2022/04/25 06:01:00;;;;;;;17.27;6.23;;;;;;;22.96;39.63;94373.50;6165107;28;103607;-53
2022/04/25 06:04:02;;;;;;;12.37;7.00;;;;;;;22.96;39.99;94384.94;6161193;28;103180;-56
2022/04/25 06:07:05;;;;;;;12.80;5.87;;;;;;;23.05;39.82;94381.44;6155265;28;103019;-54
2022/04/25 06:10:07;;;;;;;14.60;5.60;;;;;;;23.11;40.33;94380.91;6161253;28;104076;-53
2022/04/25 06:13:16;;;;;;;12.53;5.73;;;;;;;23.15;39.82;94387.13;6158208;28;103442;-53
2022/04/25 06:16:17;;;;;;;13.93;6.83;;;;;;;23.21;40.34;94377.81;6153591;28;104216;-54
2022/04/25 06:19:19;;;;;;;10.60;6.30;;;;;;;23.23;40.26;94367.59;6161756;28;103027;-54
2022/04/25 06:22:21;;;;;;;11.60;6.43;;;;;;;23.39;40.40;94364.34;6185390;28;102787;-54
2022/04/25 06:25:27;;;;;;;16.83;6.90;;;;;;;23.44;40.71;94356.88;6184223;28;103564;-53
2022/04/25 06:28:29;;;;;;;16.97;7.27;;;;;;;23.46;40.37;94354.66;6162563;28;103370;-52
2022/04/25 06:31:31;;;;;;;14.33;7.10;;;;;;;23.50;39.89;94360.13;6162635;28;102695;-53
2022/04/25 06:34:33;;;;;;;15.83;6.73;;;;;;;23.54;39.62;94356.47;6168343;28;102765;-52
2022/04/25 06:37:35;;;;;;;17.37;7.57;;;;;;;23.56;39.66;94353.47;6158037;28;104291;-52
2022/04/25 06:40:38;;;;;;;15.50;7.73;;;;;;;23.59;39.65;94353.56;6163447;28;103824;-52
2022/04/25 06:43:40;;;;;;;13.93;8.17;;;;;;;23.58;39.69;94354.69;6178283;28;103362;-52
2022/04/25 06:46:43;;;;;;;16.47;7.77;;;;;;;23.58;39.94;94356.59;6160342;28;103674;-53
2022/04/25 06:49:44;;;;;;;10.70;7.63;;;;;;;23.59;39.49;94366.16;6155159;28;103460;-54
2022/04/25 06:52:46;;;;;;;17.07;7.13;;;;;;;23.59;40.12;94371.50;6140881;28;103220;-53
2022/04/25 06:55:48;;;;;;;13.40;6.87;;;;;;;23.70;39.73;94363.84;6175431;28;103991;-53
2022/04/25 06:58:50;;;;;;;11.10;6.53;;;;;;;23.71;39.64;94370.75;6169944;28;104068;-53
2022/04/25 07:01:51;;;;;;;14.23;7.10;;;;;;;23.72;39.79;94362.41;6164976;28;104209;-54
2022/04/25 07:04:55;;;;;;;10.13;7.00;;;;;;;23.73;39.79;94368.50;6154667;28;104077;-53
2022/04/25 07:07:57;;;;;;;12.47;6.93;;;;;;;23.76;39.83;94373.19;6164194;28;104083;-53
2022/04/25 07:10:59;;;;;;;12.63;7.10;;;;;;;23.77;39.79;94374.75;6159505;28;104096;-53
2022/04/25 07:14:03;;;;;;;9.73;6.57;;;;;;;23.81;39.67;94371.06;6150439;28;103772;-53
2022/04/25 07:17:05;;;;;;;12.57;6.53;;;;;;;23.81;39.99;94359.59;6183769;28;104115;-52
2022/04/25 07:20:07;;;;;;;14.90;7.20;;;;;;;23.86;39.74;94359.41;6164550;28;104129;-54
2022/04/25 07:29:51;;;;;;;10.50;6.23;;;;;;;23.96;39.42;94356.28;6145644;28;104113;-53
2022/04/25 07:32:55;;;;;;;12.67;6.63;;;;;;;23.98;39.74;94356.72;6159013;28;103607;-53
2022/04/25 07:35:57;;;;;;;12.13;6.67;;;;;;;23.99;39.00;94360.94;6153903;28;104126;-53
2022/04/25 07:38:58;;;;;;;12.03;6.80;;;;;;;24.02;39.36;94343.50;6153306;28;104325;-53
2022/04/25 07:42:00;;;;;;;12.63;5.67;;;;;;;24.04;39.41;94342.06;6162579;28;103460;-53
2022/04/25 07:45:03;;;;;;;10.97;6.37;;;;;;;24.07;39.11;94337.94;6159826;28;102957;-53
2022/04/25 07:48:05;;;;;;;10.63;6.20;;;;;;;24.07;39.08;94337.94;6149075;28;103693;-54
2022/04/25 07:51:07;;;;;;;8.13;6.13;;;;;;;24.10;39.27;94337.25;6156511;28;103932;-54
2022/04/25 07:54:09;;;;;;;10.57;6.00;;;;;;;24.10;38.98;94338.03;6160867;28;102782;-52
2022/04/25 07:57:11;;;;;;;6.97;5.20;;;;;;;24.13;38.82;94339.25;6163958;28;104122;-54
2022/04/25 08:00:13;;;;;;;10.33;5.90;;;;;;;24.12;39.28;94338.47;6154458;28;104193;-54
2022/04/25 08:03:15;;;;;;;8.93;5.50;;;;;;;24.16;39.29;94339.34;6159794;28;104283;-55
2022/04/25 08:06:20;;;;;;;15.27;6.50;;;;;;;24.17;39.20;94335.56;6160813;28;104122;-53
2022/04/25 08:09:22;;;;;;;9.63;5.57;;;;;;;24.19;39.45;94332.56;6164680;28;105402;-54
2022/04/25 08:19:04;;;;;;;10.00;5.30;;;;;;;24.18;39.02;94315.75;6154543;28;103524;-54
2022/04/25 08:22:10;;;;;;;11.57;5.70;;;;;;;24.22;39.12;94318.53;6162599;28;105607;-54
2022/04/25 08:25:13;;;;;;;14.23;5.30;;;;;;;24.26;39.54;94302.59;6158374;28;103314;-54
2022/04/25 08:28:15;;;;;;;10.30;5.57;;;;;;;24.26;39.46;94305.28;6157652;28;103708;-55
2022/04/25 08:31:17;;;;;;;9.60;5.50;;;;;;;24.28;39.88;94303.81;6169382;28;104193;-53
2022/04/25 08:34:21;;;;;;;16.40;5.90;;;;;;;24.28;38.77;94303.81;6157711;28;103073;-53
2022/04/25 08:37:23;;;;;;;20.60;6.00;;;;;;;23.90;37.26;94304.16;6160226;28;103600;-54
2022/04/25 08:40:26;;;;;;;20.40;5.90;;;;;;;23.66;36.77;94294.25;6164020;28;103305;-55
2022/04/25 08:43:28;;;;;;;16.50;5.63;;;;;;;23.72;36.84;94303.63;6165945;28;103981;-55
2022/04/25 08:46:32;;;;;;;16.33;5.23;;;;;;;23.92;36.10;94306.50;6138992;28;103187;-54
2022/04/25 08:49:35;;;;;;;18.03;5.40;;;;;;;24.14;36.57;94304.16;6160509;28;104125;-54
2022/04/25 08:52:40;;;;;;;12.67;5.40;;;;;;;24.24;37.13;94302.16;6171562;28;104326;-56
2022/04/25 08:55:41;;;;;;;10.07;4.90;;;;;;;24.31;37.82;94294.34;6156641;28;103391;-55
2022/04/25 08:58:46;;;;;;;10.23;4.67;;;;;;;24.35;38.40;94292.53;6159640;28;103177;-54
2022/04/25 09:01:48;;;;;;;14.23;5.40;;;;;;;24.38;38.37;94303.34;6161745;28;103319;-54
2022/04/25 09:04:50;;;;;;;12.60;4.93;;;;;;;24.41;38.43;94301.91;6167725;28;103379;-53
2022/04/25 09:07:52;;;;;;;16.57;5.40;;;;;;;24.44;38.28;94291.28;6163980;28;104101;-55
2022/04/25 09:14:21;;;;;;;11.87;5.17;;;;;;;24.50;38.25;94281.91;6161727;28;103812;-54
2022/04/25 09:17:23;;;;;;;10.00;4.50;;;;;;;24.55;37.96;94288.16;6167245;28;104160;-53
2022/04/25 09:20:26;;;;;;;12.63;5.27;;;;;;;24.49;38.46;94275.00;6148047;28;103386;-53
2022/04/25 09:23:28;;;;;;;10.17;5.00;;;;;;;24.49;38.21;94269.66;6176618;28;103425;-53
2022/04/25 09:26:31;;;;;;;14.07;5.33;;;;;;;24.52;38.39;94270.09;6167553;28;102963;-53
2022/04/25 09:29:34;;;;;;;12.30;4.93;;;;;;;24.49;38.19;94275.00;6166448;28;103125;-53
2022/04/25 09:32:36;;;;;;;11.20;4.70;;;;;;;24.52;38.30;94267.41;6158741;28;105006;-53
2022/04/25 09:35:39;;;;;;;13.10;5.00;;;;;;;24.55;38.41;94264.09;6159953;28;103377;-55
2022/04/25 09:38:42;;;;;;;7.30;4.70;;;;;;;24.57;38.58;94270.63;6154939;28;103363;-53
2022/04/25 09:41:46;;;;;;;10.60;4.73;;;;;;;24.60;38.47;94267.28;6149142;28;103338;-53
2022/04/25 09:44:56;;;;;;;10.67;4.30;;;;;;;24.63;38.21;94269.28;6161386;28;102939;-52
2022/04/25 09:47:58;;;;;;;9.80;4.83;;;;;;;24.68;37.59;94260.25;6168582;28;103330;-55
2022/04/25 09:51:04;;;;;;;7.83;4.13;;;;;;;24.66;36.41;94271.25;6152379;28;104941;-52
2022/04/25 09:54:07;;;;;;;10.20;4.60;;;;;;;24.63;36.67;94249.75;6145239;28;104836;-53
2022/04/25 09:57:28;;;;;;;13.63;5.03;;;;;;;24.58;37.07;94264.16;6161140;28;102823;-52
2022/04/25 10:00:36;;;;;;;10.60;4.93;;;;;;;24.50;37.61;94257.84;6160619;28;104099;-54
2022/04/25 10:03:39;;;;;;;6.83;4.30;;;;;;;24.48;38.38;94281.47;6157625;28;104654;-52
2022/04/25 10:06:43;;;;;;;13.47;4.57;;;;;;;24.45;38.60;94254.63;6149730;28;103144;-54
2022/04/25 10:09:46;;;;;;;6.93;3.60;;;;;;;24.42;38.91;94253.41;6158145;28;102880;-53
2022/04/25 10:12:48;;;;;;;6.73;3.83;;;;;;;24.36;39.24;94244.09;6144137;28;104092;-54
2022/04/25 10:15:50;;;;;;;8.33;4.07;;;;;;;24.34;38.86;94250.88;6144122;28;103260;-54
2022/04/25 10:18:53;;;;;;;11.23;4.50;;;;;;;24.33;38.92;94242.06;6174936;28;103133;-53
2022/04/25 10:21:56;;;;;;;7.37;4.40;;;;;;;24.30;38.44;94250.78;6180425;28;103473;-53
2022/04/25 10:24:58;;;;;;;9.63;4.30;;;;;;;24.25;39.36;94243.00;6141722;28;103049;-53
2022/04/25 10:28:02;;;;;;;12.90;4.50;;;;;;;24.26;40.23;94252.56;6153547;28;103354;-54
2022/04/25 10:31:23;;;;;;;8.73;4.03;;;;;;;24.25;39.61;94256.38;6184406;28;104150;-53
2022/04/25 10:34:51;;;;;;;12.43;4.20;;;;;;;24.19;40.92;94237.13;6184990;28;104249;-55
2022/04/25 10:37:53;;;;;;;10.70;3.80;;;;;;;24.18;40.13;94256.16;6155744;28;104055;-55
2022/04/25 10:44:18;;;;;;;8.30;3.50;;;;;;;24.13;39.53;94251.81;6179662;28;104029;-53
2022/04/25 10:47:22;;;;;;;8.97;3.47;;;;;;;24.10;39.59;94259.75;6164061;28;104196;-53
2022/04/25 10:50:24;;;;;;;10.87;3.83;;;;;;;24.07;39.18;94263.88;6169643;28;102776;-52
2022/04/25 10:54:02;;;;;;;8.73;3.47;;;;;;;24.04;38.91;94255.75;6168027;28;103663;-54
2022/04/25 10:57:11;;;;;;;9.30;3.50;;;;;;;24.06;38.98;94254.28;6145120;28;103070;-53
2022/04/25 11:00:37;;;;;;;10.73;4.27;;;;;;;24.06;39.53;94261.53;6157829;28;103222;-53
2022/04/25 11:04:03;;;;;;;9.63;4.43;;;;;;;24.05;39.43;94257.31;6148907;28;104093;-53
2022/04/25 11:07:24;;;;;;;10.87;4.60;;;;;;;24.05;39.16;94252.75;6159816;28;103938;-53
2022/04/25 11:10:48;;;;;;;10.50;5.23;;;;;;;23.98;36.73;94257.06;6166095;28;103343;-53
2022/04/25 11:14:01;;;;;;;10.67;4.20;;;;;;;23.98;36.43;94254.38;6146692;28;104173;-53
2022/04/25 11:17:09;;;;;;;13.40;4.77;;;;;;;24.00;36.71;94252.94;6145717;28;103127;-52
2022/04/25 11:20:11;;;;;;;9.13;4.47;;;;;;;24.02;37.60;94256.06;6162000;28;102997;-52
2022/04/25 11:23:28;;;;;;;10.50;5.00;;;;;;;24.05;37.59;94251.97;6154013;28;102997;-51
2022/04/25 11:26:33;;;;;;;8.83;4.90;;;;;;;24.07;38.33;94250.50;6153716;28;104065;-53
2022/04/25 11:29:44;;;;;;;11.53;4.33;;;;;;;24.06;39.29;94234.81;6160009;28;103028;-52
2022/04/25 11:32:46;;;;;;;7.23;3.77;;;;;;;24.07;39.03;94258.53;6159588;28;103519;-52
2022/04/25 11:35:58;;;;;;;10.17;4.20;;;;;;;24.05;38.88;94265.31;6148591;28;104167;-51
2022/04/25 11:42:23;;;;;;;11.83;4.10;;;;;;;24.04;38.63;94255.75;6139843;28;103001;-51
2022/04/25 11:45:27;;;;;;;9.23;4.03;;;;;;;24.03;38.67;94254.19;6159092;28;104348;-52
2022/04/25 11:48:30;;;;;;;8.87;4.50;;;;;;;23.99;38.65;94256.72;6157310;28;104047;-52
2022/04/25 11:51:34;;;;;;;8.00;3.83;;;;;;;23.99;38.35;94242.56;6182560;28;103948;-51
2022/04/25 11:54:40;;;;;;;8.27;3.40;;;;;;;24.00;38.76;94249.50;6183914;28;104131;-52
2022/04/25 11:57:43;;;;;;;8.83;3.90;;;;;;;23.99;39.14;94247.91;6145736;28;103933;-53
2022/04/25 12:00:44;;;;;;;13.27;4.33;;;;;;;23.99;38.87;94255.94;6169890;28;103139;-52
2022/04/25 12:03:46;;;;;;;9.23;4.60;;;;;;;23.98;39.32;94257.81;6168001;28;103103;-53
2022/04/25 12:07:02;;;;;;;8.67;4.50;;;;;;;23.98;39.09;94249.81;6166261;28;103165;-51
2022/04/25 12:16:48;;;;;;;9.90;4.97;;;;;;;23.95;39.19;94239.81;6160974;28;103173;-51
2022/04/25 12:20:02;;;;;;;8.20;4.73;;;;;;;23.97;39.09;94255.50;6157300;28;104015;-53
2022/04/25 12:23:04;;;;;;;9.70;5.53;;;;;;;23.94;39.24;94246.25;6142272;28;104044;-51
2022/04/25 12:26:15;;;;;;;9.77;5.80;;;;;;;23.94;39.00;94250.81;6163119;28;103182;-51
2022/04/25 12:29:16;;;;;;;9.50;6.40;;;;;;;23.94;39.15;94248.94;6171385;28;103398;-52
2022/04/25 12:32:24;;;;;;;9.77;6.50;;;;;;;23.97;38.93;94234.13;6152805;28;104188;-52
2022/04/25 12:35:26;;;;;;;7.50;6.77;;;;;;;23.98;39.60;94238.34;6183234;28;103488;-51
2022/04/25 12:38:36;;;;;;;9.00;7.00;;;;;;;24.00;39.72;94239.59;6182522;28;103228;-52
2022/04/25 12:41:53;;;;;;;8.27;7.43;;;;;;;23.98;40.32;94238.34;6168708;28;103112;-52
2022/04/25 12:44:58;;;;;;;7.90;6.93;;;;;;;23.97;40.10;94234.91;6158873;28;104066;-51
2022/04/25 12:48:00;;;;;;;8.20;7.27;;;;;;;23.98;40.21;94235.66;6147370;28;103187;-51
2022/04/25 12:51:02;;;;;;;8.17;7.27;;;;;;;23.96;39.75;94229.88;6141287;28;104587;-51
2022/04/25 12:54:19;;;;;;;10.80;7.60;;;;;;;23.98;39.72;94241.00;6145084;28;103785;-51
2022/04/25 12:57:24;;;;;;;10.07;8.23;;;;;;;23.95;39.41;94242.47;6156751;28;103480;-52
2022/04/25 13:00:29;;;;;;;9.27;8.17;;;;;;;23.94;39.62;94238.25;6158773;28;103219;-52
2022/04/25 13:03:31;;;;;;;8.70;7.90;;;;;;;23.95;39.17;94237.13;6164632;28;103085;-51
2022/04/25 13:06:33;;;;;;;8.73;7.90;;;;;;;23.95;38.92;94236.34;6154323;28;103061;-55
2022/04/25 13:09:34;;;;;;;12.10;8.30;;;;;;;24.00;38.56;94234.25;6160900;28;103060;-51
2022/04/25 13:12:40;;;;;;;8.90;7.73;;;;;;;24.01;38.51;94235.03;6160716;28;103439;-51
2022/04/25 13:15:44;;;;;;;11.10;7.67;;;;;;;23.99;38.67;94235.34;6158799;28;103601;-50
2022/04/25 13:18:48;;;;;;;9.43;7.63;;;;;;;24.01;38.47;94233.13;6151047;28;104084;-50
2022/04/25 13:21:49;;;;;;;8.80;7.30;;;;;;;23.99;38.66;94223.88;6157591;28;104139;-51
2022/04/25 13:24:51;;;;;;;8.57;6.80;;;;;;;24.02;38.30;94231.22;6179774;28;104376;-51
2022/04/25 13:27:53;;;;;;;8.80;7.17;;;;;;;23.97;38.24;94223.44;6154230;28;103808;-51
2022/04/25 13:30:56;;;;;;;9.23;7.07;;;;;;;24.02;37.91;94225.88;6156004;28;104329;-52
2022/04/25 13:33:59;;;;;;;7.17;5.67;;;;;;;24.00;37.53;94231.56;6169632;28;104420;-53
2022/04/25 13:37:02;;;;;;;12.00;5.50;;;;;;;24.00;37.39;94223.56;6167813;28;103494;-51
2022/04/25 13:40:05;;;;;;;7.80;5.60;;;;;;;24.00;37.69;94228.91;6153459;28;104168;-51
2022/04/25 13:43:08;;;;;;;10.90;6.30;;;;;;;24.02;37.75;94226.66;6156497;28;103676;-52
2022/04/25 13:46:10;;;;;;;7.50;5.43;;;;;;;24.00;37.22;94223.56;6157251;28;103093;-51
2022/04/25 13:49:12;;;;;;;9.20;6.73;;;;;;;24.00;37.46;94225.44;6138893;28;103340;-54
2022/04/25 13:52:14;;;;;;;8.63;6.67;;;;;;;23.99;36.98;94215.84;6125914;28;104726;-52
2022/04/25 13:55:16;;;;;;;7.80;7.10;;;;;;;23.96;37.37;94230.66;6155517;28;105099;-53
2022/04/25 13:58:17;;;;;;;7.57;6.47;;;;;;;23.97;37.04;94234.13;6161400;28;102994;-52
2022/04/25 14:01:19;;;;;;;9.53;8.53;;;;;;;23.99;37.23;94237.22;6167767;28;102975;-51
2022/04/25 14:04:21;;;;;;;10.60;8.97;;;;;;;23.99;37.10;94232.66;6149732;28;104114;-51
2022/04/25 14:07:23;;;;;;;11.13;9.60;;;;;;;23.99;37.38;94229.22;6158126;28;104406;-52
2022/04/25 14:10:25;;;;;;;10.93;9.70;;;;;;;24.00;37.63;94233.47;6160676;28;103623;-51
2022/04/25 14:13:28;;;;;;;12.40;9.63;;;;;;;23.99;37.62;94227.31;6151883;28;103026;-51
2022/04/25 14:16:31;;;;;;;13.30;9.37;;;;;;;24.07;37.39;94226.44;6158418;28;104768;-54
2022/04/25 14:19:33;;;;;;;13.10;10.23;;;;;;;24.06;36.72;94232.13;6165289;28;104078;-53
2022/04/25 14:22:34;;;;;;;10.67;9.67;;;;;;;24.04;37.28;94231.69;6158623;28;103201;-51
2022/04/25 14:25:39;;;;;;;10.17;9.27;;;;;;;24.06;37.08;94237.47;6152281;28;103607;-51
2022/04/25 14:28:46;;;;;;;17.00;10.50;;;;;;;24.01;36.90;94241.16;6176722;28;104025;-50
2022/04/25 14:32:08;;;;;;;10.77;9.13;;;;;;;23.98;36.85;94249.81;6155493;28;103399;-52
2022/04/25 14:35:10;;;;;;;10.47;9.47;;;;;;;23.96;36.85;94246.69;6158282;28;103180;-52
2022/04/25 14:38:12;;;;;;;15.03;12.57;;;;;;;23.95;36.66;94247.03;6147455;28;104075;-52
2022/04/25 14:41:14;;;;;;;18.53;16.90;;;;;;;23.93;37.17;94257.28;6157413;28;104353;-53
2022/04/25 14:44:16;;;;;;;20.83;18.83;;;;;;;23.99;37.18;94251.38;6159908;28;103093;-54
2022/04/25 14:47:18;;;;;;;22.60;20.50;;;;;;;24.03;37.50;94260.31;6155227;28;104217;-52
2022/04/25 14:57:00;;;;;;;20.50;18.60;;;;;;;24.06;36.44;94262.31;6160103;28;103946;-53